sensor_id;sensor_type;location;lat;lon;timestamp;pressure;altitude;pressure_sealevel;temperature;humidity
10476;BME280;26166;48.264;11.436;2022-12-18T00:02:38;97240.69;;;6.72;45.39
10476;BME280;26166;48.264;11.436;2022-12-18T00:05:45;97223.22;;;6.72;44.89
10476;BME280;26166;48.264;11.436;2022-12-18T00:08:46;97241.50;;;6.72;45.26
10476;BME280;26166;48.264;11.436;2022-12-18T00:11:46;97230.13;;;6.73;44.76
10476;BME280;26166;48.264;11.436;2022-12-18T00:14:46;97238.06;;;6.72;44.99
10476;BME280;26166;48.264;11.436;2022-12-18T00:17:46;97233.19;;;6.67;44.72
10476;BME280;26166;48.264;11.436;2022-12-18T00:20:47;97231.41;;;6.68;44.87
10476;BME280;26166;48.264;11.436;2022-12-18T00:23:47;97245.44;;;6.67;45.19
10476;BME280;26166;48.264;11.436;2022-12-18T00:26:48;97256.00;;;6.65;44.72
10476;BME280;26166;48.264;11.436;2022-12-18T00:29:48;97257.19;;;6.61;45.12
10476;BME280;26166;48.264;11.436;2022-12-18T00:32:49;97267.84;;;6.58;45.27
10476;BME280;26166;48.264;11.436;2022-12-18T00:35:49;97274.72;;;6.59;44.79
10476;BME280;26166;48.264;11.436;2022-12-18T00:38:49;97272.38;;;6.56;45.24
10476;BME280;26166;48.264;11.436;2022-12-18T00:41:49;97279.25;;;6.57;45.24
10476;BME280;26166;48.264;11.436;2022-12-18T00:45:08;97286.25;;;6.56;44.74
10476;BME280;26166;48.264;11.436;2022-12-18T00:48:08;97295.75;;;6.57;45.34
10476;BME280;26166;48.264;11.436;2022-12-18T00:51:08;97286.00;;;6.60;44.90
10476;BME280;26166;48.264;11.436;2022-12-18T00:54:08;97279.03;;;6.60;44.39
10476;BME280;26166;48.264;11.436;2022-12-18T00:57:09;97282.34;;;6.62;44.30
10476;BME280;26166;48.264;11.436;2022-12-18T01:00:13;97286.59;;;6.63;44.97
10476;BME280;26166;48.264;11.436;2022-12-18T01:03:14;97284.72;;;6.65;44.80
10476;BME280;26166;48.264;11.436;2022-12-18T01:06:14;97284.47;;;6.68;44.62
10476;BME280;26166;48.264;11.436;2022-12-18T01:09:15;97288.88;;;6.68;44.73
10476;BME280;26166;48.264;11.436;2022-12-18T01:12:15;97294.91;;;6.68;45.48
10476;BME280;26166;48.264;11.436;2022-12-18T01:15:15;97294.09;;;6.68;44.54
10476;BME280;26166;48.264;11.436;2022-12-18T01:18:16;97305.34;;;6.68;45.07
10476;BME280;26166;48.264;11.436;2022-12-18T01:21:16;97315.09;;;6.66;45.46
10476;BME280;26166;48.264;11.436;2022-12-18T01:24:17;97319.38;;;6.67;45.40
10476;BME280;26166;48.264;11.436;2022-12-18T01:27:17;97316.75;;;6.67;44.86
10476;BME280;26166;48.264;11.436;2022-12-18T01:30:17;97334.81;;;6.70;45.16
10476;BME280;26166;48.264;11.436;2022-12-18T01:33:17;97343.59;;;6.69;44.69
10476;BME280;26166;48.264;11.436;2022-12-18T01:36:19;97350.25;;;6.73;44.89
10476;BME280;26166;48.264;11.436;2022-12-18T01:39:19;97337.78;;;6.77;44.23
10476;BME280;26166;48.264;11.436;2022-12-18T01:42:20;97324.72;;;6.77;44.53
10476;BME280;26166;48.264;11.436;2022-12-18T01:48:20;97331.84;;;6.75;43.96
10476;BME280;26166;48.264;11.436;2022-12-18T01:51:20;97337.06;;;6.75;44.18
10476;BME280;26166;48.264;11.436;2022-12-18T01:54:21;97335.50;;;6.72;44.13
10476;BME280;26166;48.264;11.436;2022-12-18T01:57:21;97328.75;;;6.70;44.05
10476;BME280;26166;48.264;11.436;2022-12-18T02:00:23;97329.72;;;6.69;45.34
10476;BME280;26166;48.264;11.436;2022-12-18T02:03:23;97319.38;;;6.67;44.93
10476;BME280;26166;48.264;11.436;2022-12-18T02:06:34;97321.97;;;6.67;44.18
10476;BME280;26166;48.264;11.436;2022-12-18T02:10:24;97320.44;;;6.65;44.55
10476;BME280;26166;48.264;11.436;2022-12-18T02:22:38;97312.72;;;6.63;44.94
10476;BME280;26166;48.264;11.436;2022-12-18T02:29:05;97316.16;;;6.64;44.00
10476;BME280;26166;48.264;11.436;2022-12-18T02:32:07;97309.41;;;6.61;44.05
10476;BME280;26166;48.264;11.436;2022-12-18T02:35:13;97311.19;;;6.61;44.17
10476;BME280;26166;48.264;11.436;2022-12-18T02:38:14;97306.06;;;6.59;43.76
10476;BME280;26166;48.264;11.436;2022-12-18T02:41:16;97304.63;;;6.55;44.06
10476;BME280;26166;48.264;11.436;2022-12-18T02:44:16;97315.53;;;6.49;44.16
10476;BME280;26166;48.264;11.436;2022-12-18T02:47:17;97324.31;;;6.48;44.33
10476;BME280;26166;48.264;11.436;2022-12-18T02:53:36;97320.75;;;6.49;44.37
10476;BME280;26166;48.264;11.436;2022-12-18T02:56:39;97327.63;;;6.50;44.28
10476;BME280;26166;48.264;11.436;2022-12-18T03:00:03;97324.09;;;6.51;43.41
10476;BME280;26166;48.264;11.436;2022-12-18T03:03:09;97320.97;;;6.46;44.32
10476;BME280;26166;48.264;11.436;2022-12-18T03:06:21;97309.84;;;6.44;44.11
10476;BME280;26166;48.264;11.436;2022-12-18T03:09:31;97310.78;;;6.43;44.31
10476;BME280;26166;48.264;11.436;2022-12-18T03:12:33;97304.22;;;6.37;44.13
10476;BME280;26166;48.264;11.436;2022-12-18T03:15:37;97306.00;;;6.37;44.12
10476;BME280;26166;48.264;11.436;2022-12-18T03:18:39;97306.84;;;6.37;44.28
10476;BME280;26166;48.264;11.436;2022-12-18T03:21:43;97306.50;;;6.42;44.11
10476;BME280;26166;48.264;11.436;2022-12-18T03:24:45;97319.44;;;6.43;44.52
10476;BME280;26166;48.264;11.436;2022-12-18T03:27:47;97316.00;;;6.43;43.70
10476;BME280;26166;48.264;11.436;2022-12-18T03:30:53;97321.66;;;6.37;44.49
10476;BME280;26166;48.264;11.436;2022-12-18T03:33:56;97328.56;;;6.38;44.89
10476;BME280;26166;48.264;11.436;2022-12-18T03:36:57;97326.66;;;6.40;44.48
10476;BME280;26166;48.264;11.436;2022-12-18T03:39:58;97316.63;;;6.46;44.04
10476;BME280;26166;48.264;11.436;2022-12-18T03:43:00;97320.75;;;6.49;43.83
10476;BME280;26166;48.264;11.436;2022-12-18T03:46:07;97323.16;;;6.52;43.94
10476;BME280;26166;48.264;11.436;2022-12-18T03:49:10;97308.31;;;6.52;44.51
10476;BME280;26166;48.264;11.436;2022-12-18T03:52:14;97326.94;;;6.59;43.82
10476;BME280;26166;48.264;11.436;2022-12-18T03:55:18;97332.41;;;6.56;44.22
10476;BME280;26166;48.264;11.436;2022-12-18T03:58:20;97334.78;;;6.59;43.59
10476;BME280;26166;48.264;11.436;2022-12-18T04:01:24;97331.34;;;6.58;43.98
10476;BME280;26166;48.264;11.436;2022-12-18T04:04:26;97333.25;;;6.56;45.09
10476;BME280;26166;48.264;11.436;2022-12-18T04:07:27;97331.59;;;6.55;43.73
10476;BME280;26166;48.264;11.436;2022-12-18T04:10:27;97328.84;;;6.57;44.40
10476;BME280;26166;48.264;11.436;2022-12-18T04:13:29;97318.28;;;6.58;44.17
10476;BME280;26166;48.264;11.436;2022-12-18T04:16:29;97313.06;;;6.58;44.22
10476;BME280;26166;48.264;11.436;2022-12-18T04:19:30;97318.19;;;6.60;44.22
10476;BME280;26166;48.264;11.436;2022-12-18T04:22:30;97325.75;;;6.63;44.11
10476;BME280;26166;48.264;11.436;2022-12-18T04:25:30;97341.44;;;6.63;43.92
10476;BME280;26166;48.264;11.436;2022-12-18T04:28:30;97344.16;;;6.62;43.88
10476;BME280;26166;48.264;11.436;2022-12-18T04:31:30;97337.63;;;6.56;43.40
10476;BME280;26166;48.264;11.436;2022-12-18T04:34:31;97315.53;;;6.49;44.35
10476;BME280;26166;48.264;11.436;2022-12-18T04:37:31;97328.94;;;6.44;43.93
10476;BME280;26166;48.264;11.436;2022-12-18T04:40:31;97335.19;;;6.42;44.10
10476;BME280;26166;48.264;11.436;2022-12-18T04:43:31;97345.41;;;6.45;44.10
10476;BME280;26166;48.264;11.436;2022-12-18T04:46:32;97352.09;;;6.49;44.28
10476;BME280;26166;48.264;11.436;2022-12-18T04:49:33;97363.13;;;6.52;43.89
10476;BME280;26166;48.264;11.436;2022-12-18T04:52:33;97355.19;;;6.54;43.71
10476;BME280;26166;48.264;11.436;2022-12-18T04:55:33;97361.34;;;6.53;44.42
10476;BME280;26166;48.264;11.436;2022-12-18T04:58:34;97355.31;;;6.52;44.20
10476;BME280;26166;48.264;11.436;2022-12-18T05:01:34;97358.75;;;6.53;43.56
10476;BME280;26166;48.264;11.436;2022-12-18T05:04:34;97359.78;;;6.50;43.47
10476;BME280;26166;48.264;11.436;2022-12-18T05:07:34;97365.88;;;6.51;43.61
10476;BME280;26166;48.264;11.436;2022-12-18T05:10:35;97359.78;;;6.50;44.01
10476;BME280;26166;48.264;11.436;2022-12-18T05:13:35;97358.88;;;6.51;43.74
10476;BME280;26166;48.264;11.436;2022-12-18T05:16:35;97349.34;;;6.50;43.32
10476;BME280;26166;48.264;11.436;2022-12-18T05:19:36;97355.66;;;6.48;43.91
10476;BME280;26166;48.264;11.436;2022-12-18T05:22:37;97365.25;;;6.47;43.41
10476;BME280;26166;48.264;11.436;2022-12-18T05:25:38;97383.41;;;6.49;44.36
10476;BME280;26166;48.264;11.436;2022-12-18T05:28:38;97390.53;;;6.47;44.26
10476;BME280;26166;48.264;11.436;2022-12-18T05:31:38;97376.41;;;6.49;43.78
10476;BME280;26166;48.264;11.436;2022-12-18T05:34:39;97377.22;;;6.50;43.66
10476;BME280;26166;48.264;11.436;2022-12-18T05:37:39;97377.22;;;6.50;43.33
10476;BME280;26166;48.264;11.436;2022-12-18T05:40:41;97371.91;;;6.51;44.11
10476;BME280;26166;48.264;11.436;2022-12-18T05:43:41;97371.09;;;6.51;43.97
10476;BME280;26166;48.264;11.436;2022-12-18T05:46:41;97376.31;;;6.51;43.86
10476;BME280;26166;48.264;11.436;2022-12-18T05:49:42;97379.84;;;6.50;43.81
10476;BME280;26166;48.264;11.436;2022-12-18T05:52:42;97385.31;;;6.47;43.08
10476;BME280;26166;48.264;11.436;2022-12-18T05:55:42;97377.47;;;6.47;43.54
10476;BME280;26166;48.264;11.436;2022-12-18T05:58:43;97384.34;;;6.48;43.58
10476;BME280;26166;48.264;11.436;2022-12-18T06:01:44;97383.63;;;6.46;43.41
10476;BME280;26166;48.264;11.436;2022-12-18T06:04:44;97383.63;;;6.46;43.88
10476;BME280;26166;48.264;11.436;2022-12-18T06:07:44;97385.19;;;6.48;43.67
10476;BME280;26166;48.264;11.436;2022-12-18T06:10:49;97390.41;;;6.48;43.37
10476;BME280;26166;48.264;11.436;2022-12-18T06:13:51;97389.56;;;6.48;43.76
10476;BME280;26166;48.264;11.436;2022-12-18T06:16:52;97380.31;;;6.44;43.42
10476;BME280;26166;48.264;11.436;2022-12-18T06:19:52;97388.84;;;6.46;43.97
10476;BME280;26166;48.264;11.436;2022-12-18T06:22:52;97395.13;;;6.43;43.88
10476;BME280;26166;48.264;11.436;2022-12-18T06:25:53;97405.56;;;6.43;43.70
10476;BME280;26166;48.264;11.436;2022-12-18T06:28:53;97400.25;;;6.45;44.01
10476;BME280;26166;48.264;11.436;2022-12-18T06:31:54;97393.63;;;6.52;44.32
10476;BME280;26166;48.264;11.436;2022-12-18T06:34:54;97404.69;;;6.55;43.88
10476;BME280;26166;48.264;11.436;2022-12-18T06:37:55;97401.94;;;6.57;43.20
10476;BME280;26166;48.264;11.436;2022-12-18T06:40:55;97400.03;;;6.59;43.66
10476;BME280;26166;48.264;11.436;2022-12-18T06:43:55;97412.59;;;6.54;43.80
10476;BME280;26166;48.264;11.436;2022-12-18T06:46:57;97412.94;;;6.49;44.42
10476;BME280;26166;48.264;11.436;2022-12-18T06:49:57;97419.94;;;6.49;44.17
10476;BME280;26166;48.264;11.436;2022-12-18T06:52:57;97426.81;;;6.50;44.19
10476;BME280;26166;48.264;11.436;2022-12-18T06:56:01;97431.84;;;6.53;44.14
10476;BME280;26166;48.264;11.436;2022-12-18T06:59:01;97429.22;;;6.53;44.10
10476;BME280;26166;48.264;11.436;2022-12-18T07:02:02;97431.00;;;6.52;44.41
10476;BME280;26166;48.264;11.436;2022-12-18T07:05:02;97441.31;;;6.54;44.07
10476;BME280;26166;48.264;11.436;2022-12-18T07:08:03;97436.94;;;6.54;44.63
10476;BME280;26166;48.264;11.436;2022-12-18T07:11:03;97448.31;;;6.53;44.20
10476;BME280;26166;48.264;11.436;2022-12-18T07:14:04;97448.94;;;6.57;44.66
10476;BME280;26166;48.264;11.436;2022-12-18T07:17:04;97457.38;;;6.61;44.34
10476;BME280;26166;48.264;11.436;2022-12-18T07:20:04;97448.59;;;6.62;44.44
10476;BME280;26166;48.264;11.436;2022-12-18T07:23:04;97449.31;;;6.64;43.82
10476;BME280;26166;48.264;11.436;2022-12-18T07:26:09;97449.09;;;6.67;43.54
10476;BME280;26166;48.264;11.436;2022-12-18T07:29:09;97453.25;;;6.69;43.61
10476;BME280;26166;48.264;11.436;2022-12-18T07:32:09;97444.69;;;6.67;44.38
10476;BME280;26166;48.264;11.436;2022-12-18T07:35:10;97443.25;;;6.63;43.66
10476;BME280;26166;48.264;11.436;2022-12-18T07:38:10;97446.00;;;6.62;44.02
10476;BME280;26166;48.264;11.436;2022-12-18T07:41:11;97455.59;;;6.61;44.12
10476;BME280;26166;48.264;11.436;2022-12-18T07:44:12;97449.56;;;6.61;43.65
10476;BME280;26166;48.264;11.436;2022-12-18T07:47:12;97458.22;;;6.61;43.40
10476;BME280;26166;48.264;11.436;2022-12-18T07:50:12;97446.44;;;6.55;44.08
10476;BME280;26166;48.264;11.436;2022-12-18T07:53:13;97449.97;;;6.54;44.52
10476;BME280;26166;48.264;11.436;2022-12-18T07:56:14;97449.16;;;6.54;43.55
10476;BME280;26166;48.264;11.436;2022-12-18T07:59:14;97457.81;;;6.54;43.56
10476;BME280;26166;48.264;11.436;2022-12-18T08:02:14;97460.66;;;6.51;43.60
10476;BME280;26166;48.264;11.436;2022-12-18T08:05:15;97469.66;;;6.47;43.64
10476;BME280;26166;48.264;11.436;2022-12-18T08:08:15;97475.09;;;6.44;43.42
10476;BME280;26166;48.264;11.436;2022-12-18T08:11:15;97470.84;;;6.43;43.68
10476;BME280;26166;48.264;11.436;2022-12-18T08:14:15;97476.66;;;6.47;44.35
10476;BME280;26166;48.264;11.436;2022-12-18T08:17:16;97486.78;;;6.51;44.14
10476;BME280;26166;48.264;11.436;2022-12-18T08:20:16;97478.00;;;6.52;43.89
10476;BME280;26166;48.264;11.436;2022-12-18T08:23:18;97478.59;;;6.56;43.85
10476;BME280;26166;48.264;11.436;2022-12-18T08:26:19;97477.66;;;6.57;43.96
10476;BME280;26166;48.264;11.436;2022-12-18T08:29:19;97476.00;;;6.56;44.06
10476;BME280;26166;48.264;11.436;2022-12-18T08:32:19;97482.13;;;6.55;43.89
10476;BME280;26166;48.264;11.436;2022-12-18T08:35:20;97479.53;;;6.55;43.38
10476;BME280;26166;48.264;11.436;2022-12-18T08:38:20;97489.97;;;6.55;44.15
10476;BME280;26166;48.264;11.436;2022-12-18T08:41:21;97488.31;;;6.54;43.73
10476;BME280;26166;48.264;11.436;2022-12-18T08:44:21;97488.44;;;6.52;44.34
10476;BME280;26166;48.264;11.436;2022-12-18T08:47:40;97492.09;;;6.50;43.36
10476;BME280;26166;48.264;11.436;2022-12-18T08:50:40;97493.25;;;6.46;44.48
10476;BME280;26166;48.264;11.436;2022-12-18T08:53:41;97481.97;;;6.45;43.40
10476;BME280;26166;48.264;11.436;2022-12-18T08:56:42;97492.53;;;6.44;43.41
10476;BME280;26166;48.264;11.436;2022-12-18T08:59:42;97501.09;;;6.46;43.45
10476;BME280;26166;48.264;11.436;2022-12-18T09:02:42;97506.31;;;6.46;43.94
10476;BME280;26166;48.264;11.436;2022-12-18T09:05:42;97503.69;;;6.46;44.04
10476;BME280;26166;48.264;11.436;2022-12-18T09:08:43;97501.94;;;6.46;44.12
10476;BME280;26166;48.264;11.436;2022-12-18T09:11:44;97504.31;;;6.49;44.22
10476;BME280;26166;48.264;11.436;2022-12-18T09:14:44;97505.75;;;6.53;43.18
10476;BME280;26166;48.264;11.436;2022-12-18T09:17:44;97498.88;;;6.52;42.71
10476;BME280;26166;48.264;11.436;2022-12-18T09:20:45;97496.59;;;6.48;43.07
10476;BME280;26166;48.264;11.436;2022-12-18T09:23:51;97491.50;;;6.46;44.00
10476;BME280;26166;48.264;11.436;2022-12-18T09:26:53;97492.34;;;6.47;43.90
10476;BME280;26166;48.264;11.436;2022-12-18T09:29:53;97491.59;;;6.45;43.61
10476;BME280;26166;48.264;11.436;2022-12-18T09:32:53;97483.88;;;6.43;43.36
10476;BME280;26166;48.264;11.436;2022-12-18T09:35:53;97485.75;;;6.41;43.41
10476;BME280;26166;48.264;11.436;2022-12-18T09:38:54;97490.16;;;6.41;42.79
10476;BME280;26166;48.264;11.436;2022-12-18T09:41:55;97485.38;;;6.35;43.69
10476;BME280;26166;48.264;11.436;2022-12-18T09:44:57;97493.22;;;6.35;43.66
10476;BME280;26166;48.264;11.436;2022-12-18T09:47:58;97491.56;;;6.34;43.82
10476;BME280;26166;48.264;11.436;2022-12-18T09:51:00;97486.81;;;6.39;43.29
10476;BME280;26166;48.264;11.436;2022-12-18T09:54:07;97477.84;;;6.43;42.88
10476;BME280;26166;48.264;11.436;2022-12-18T09:57:15;97477.84;;;6.43;43.26
10476;BME280;26166;48.264;11.436;2022-12-18T10:00:23;97475.94;;;6.45;43.05
10476;BME280;26166;48.264;11.436;2022-12-18T10:03:24;97482.22;;;6.42;43.25
10476;BME280;26166;48.264;11.436;2022-12-18T10:13:29;97466.91;;;6.01;44.14
10476;BME280;26166;48.264;11.436;2022-12-18T10:22:53;97460.03;;;5.87;44.55
10476;BME280;26166;48.264;11.436;2022-12-18T10:28:59;97442.81;;;5.97;43.39
10476;BME280;26166;48.264;11.436;2022-12-18T10:31:59;97446.66;;;6.04;44.14
10476;BME280;26166;48.264;11.436;2022-12-18T10:34:59;97447.06;;;6.11;43.76
10476;BME280;26166;48.264;11.436;2022-12-18T10:38:06;97441.53;;;6.16;43.47
10476;BME280;26166;48.264;11.436;2022-12-18T10:44:22;97447.13;;;6.22;43.35
10476;BME280;26166;48.264;11.436;2022-12-18T10:47:23;97447.59;;;6.27;42.43
10476;BME280;26166;48.264;11.436;2022-12-18T10:50:28;97443.25;;;6.15;43.53
10476;BME280;26166;48.264;11.436;2022-12-18T10:53:29;97445.78;;;6.17;43.83
10476;BME280;26166;48.264;11.436;2022-12-18T10:56:31;97449.72;;;6.22;43.43
10476;BME280;26166;48.264;11.436;2022-12-18T10:59:32;97450.84;;;6.07;43.87
10476;BME280;26166;48.264;11.436;2022-12-18T11:02:49;97456.97;;;6.06;44.86
10476;BME280;26166;48.264;11.436;2022-12-18T11:05:49;97476.69;;;6.10;45.50
10476;BME280;26166;48.264;11.436;2022-12-18T11:12:01;97473.28;;;6.34;45.12
10476;BME280;26166;48.264;11.436;2022-12-18T11:15:02;97471.16;;;6.39;45.58
10476;BME280;26166;48.264;11.436;2022-12-18T11:18:02;97465.41;;;6.46;45.27
10476;BME280;26166;48.264;11.436;2022-12-18T11:21:06;97461.72;;;6.49;44.69
10476;BME280;26166;48.264;11.436;2022-12-18T11:24:15;97464.94;;;6.52;45.29
10476;BME280;26166;48.264;11.436;2022-12-18T11:27:19;97467.34;;;6.55;44.60
10476;BME280;26166;48.264;11.436;2022-12-18T11:33:20;97466.94;;;6.49;44.78
10476;BME280;26166;48.264;11.436;2022-12-18T11:36:21;97461.22;;;6.44;44.92
10476;BME280;26166;48.264;11.436;2022-12-18T11:45:34;97436.84;;;6.56;44.24
10476;BME280;26166;48.264;11.436;2022-12-18T11:48:41;97436.59;;;6.59;43.94
10476;BME280;26166;48.264;11.436;2022-12-18T11:51:46;97451.34;;;6.60;44.66
10476;BME280;26166;48.264;11.436;2022-12-18T11:55:10;97434.72;;;6.61;44.03
10476;BME280;26166;48.264;11.436;2022-12-18T11:58:16;97433.88;;;6.61;44.61
10476;BME280;26166;48.264;11.436;2022-12-18T12:20:00;97424.34;;;6.48;44.45
10476;BME280;26166;48.264;11.436;2022-12-18T12:26:44;97420.16;;;6.46;44.27
10476;BME280;26166;48.264;11.436;2022-12-18T12:33:04;97414.03;;;6.47;44.71
10476;BME280;26166;48.264;11.436;2022-12-18T12:39:10;97413.91;;;6.48;44.30
10476;BME280;26166;48.264;11.436;2022-12-18T12:42:20;97416.38;;;6.50;44.35
10476;BME280;26166;48.264;11.436;2022-12-18T12:49:04;97421.59;;;6.50;44.26
10476;BME280;26166;48.264;11.436;2022-12-18T12:52:14;97412.72;;;6.52;43.40
10476;BME280;26166;48.264;11.436;2022-12-18T12:55:22;97412.59;;;6.54;43.90
10476;BME280;26166;48.264;11.436;2022-12-18T13:02:04;97419.59;;;6.53;43.56
10476;BME280;26166;48.264;11.436;2022-12-18T13:08:26;97424.84;;;6.53;43.80
10476;BME280;26166;48.264;11.436;2022-12-18T13:11:32;97423.88;;;6.54;43.57
10476;BME280;26166;48.264;11.436;2022-12-18T13:14:52;97428.53;;;6.51;44.70
10476;BME280;26166;48.264;11.436;2022-12-18T13:21:17;97430.19;;;6.52;43.94
10476;BME280;26166;48.264;11.436;2022-12-18T13:30:55;97414.16;;;6.56;43.79
10476;BME280;26166;48.264;11.436;2022-12-18T13:43:40;97417.59;;;6.57;43.64
10476;BME280;26166;48.264;11.436;2022-12-18T13:46:44;97407.16;;;6.57;43.79
10476;BME280;26166;48.264;11.436;2022-12-18T13:49:44;97407.88;;;6.59;43.77
10476;BME280;26166;48.264;11.436;2022-12-18T13:52:46;97402.56;;;6.61;44.23
10476;BME280;26166;48.264;11.436;2022-12-18T13:55:46;97401.59;;;6.62;43.93
10476;BME280;26166;48.264;11.436;2022-12-18T13:59:03;97405.03;;;6.62;44.20
10476;BME280;26166;48.264;11.436;2022-12-18T14:02:13;97404.09;;;6.63;44.05
10476;BME280;26166;48.264;11.436;2022-12-18T14:05:30;97400.88;;;6.60;43.91
10476;BME280;26166;48.264;11.436;2022-12-18T14:08:38;97406.09;;;6.60;44.49
10476;BME280;26166;48.264;11.436;2022-12-18T14:11:39;97409.66;;;6.58;44.26
10476;BME280;26166;48.264;11.436;2022-12-18T14:14:40;97412.59;;;6.54;43.87
10476;BME280;26166;48.264;11.436;2022-12-18T14:17:42;97410.00;;;6.54;44.11
10476;BME280;26166;48.264;11.436;2022-12-18T14:20:45;97421.38;;;6.53;43.16
10476;BME280;26166;48.264;11.436;2022-12-18T14:23:45;97426.81;;;6.50;44.36
10476;BME280;26166;48.264;11.436;2022-12-18T14:26:46;97420.56;;;6.52;44.05
10476;BME280;26166;48.264;11.436;2022-12-18T14:29:47;97421.19;;;6.56;44.06
10476;BME280;26166;48.264;11.436;2022-12-18T14:32:59;97418.78;;;6.53;44.03
10476;BME280;26166;48.264;11.436;2022-12-18T14:36:03;97416.28;;;6.51;44.18
10476;BME280;26166;48.264;11.436;2022-12-18T14:39:04;97414.25;;;6.55;44.58
10476;BME280;26166;48.264;11.436;2022-12-18T14:42:04;97413.09;;;6.59;44.25
10476;BME280;26166;48.264;11.436;2022-12-18T14:51:24;97417.16;;;6.63;44.38
10476;BME280;26166;48.264;11.436;2022-12-18T14:54:26;97413.63;;;6.64;43.44
10476;BME280;26166;48.264;11.436;2022-12-18T14:57:30;97408.81;;;6.58;44.17
10476;BME280;26166;48.264;11.436;2022-12-18T15:00:32;97415.00;;;6.57;43.81
10476;BME280;26166;48.264;11.436;2022-12-18T15:03:32;97414.03;;;6.58;44.09
10476;BME280;26166;48.264;11.436;2022-12-18T15:06:36;97406.94;;;6.60;44.14
10476;BME280;26166;48.264;11.436;2022-12-18T15:09:37;97404.28;;;6.49;44.35
10476;BME280;26166;48.264;11.436;2022-12-18T15:18:44;97409.03;;;6.55;43.84
10476;BME280;26166;48.264;11.436;2022-12-18T15:21:48;97413.63;;;6.64;43.79
10476;BME280;26166;48.264;11.436;2022-12-18T15:24:48;97418.97;;;6.74;44.14
10476;BME280;26166;48.264;11.436;2022-12-18T15:27:49;97425.28;;;6.82;43.12
10476;BME280;26166;48.264;11.436;2022-12-18T15:37:07;97415.09;;;6.91;43.74
10476;BME280;26166;48.264;11.436;2022-12-18T15:40:12;97405.00;;;6.97;43.52
10476;BME280;26166;48.264;11.436;2022-12-18T15:43:12;97402.88;;;7.02;43.28
10476;BME280;26166;48.264;11.436;2022-12-18T15:46:31;97406.31;;;7.03;43.36
10476;BME280;26166;48.264;11.436;2022-12-18T15:49:31;97410.38;;;7.07;42.95
10476;BME280;26166;48.264;11.436;2022-12-18T15:52:32;97407.53;;;7.10;42.31
10476;BME280;26166;48.264;11.436;2022-12-18T15:55:36;97411.31;;;7.06;42.51
10476;BME280;26166;48.264;11.436;2022-12-18T15:58:56;97409.75;;;7.03;42.43
10476;BME280;26166;48.264;11.436;2022-12-18T16:01:56;97399.56;;;7.00;42.76
10476;BME280;26166;48.264;11.436;2022-12-18T16:04:56;97401.09;;;7.03;42.72
10476;BME280;26166;48.264;11.436;2022-12-18T16:07:57;97401.00;;;7.04;43.18
10476;BME280;26166;48.264;11.436;2022-12-18T16:10:58;97415.59;;;7.07;42.79
10476;BME280;26166;48.264;11.436;2022-12-18T16:13:58;97412.03;;;7.08;43.13
10476;BME280;26166;48.264;11.436;2022-12-18T16:16:59;97412.75;;;7.10;42.57
10476;BME280;26166;48.264;11.436;2022-12-18T16:20:00;97402.06;;;7.13;42.63
10476;BME280;26166;48.264;11.436;2022-12-18T16:23:00;97401.34;;;7.11;43.01
10476;BME280;26166;48.264;11.436;2022-12-18T16:26:01;97392.81;;;7.09;42.71
10476;BME280;26166;48.264;11.436;2022-12-18T16:29:01;97391.13;;;7.08;42.46
10476;BME280;26166;48.264;11.436;2022-12-18T16:32:01;97408.72;;;7.06;42.71
10476;BME280;26166;48.264;11.436;2022-12-18T16:35:02;97411.19;;;7.07;42.78
10476;BME280;26166;48.264;11.436;2022-12-18T16:38:02;97410.63;;;7.04;42.96
10476;BME280;26166;48.264;11.436;2022-12-18T16:41:05;97399.31;;;7.03;42.80
10476;BME280;26166;48.264;11.436;2022-12-18T16:44:33;97401.69;;;7.06;43.10
10476;BME280;26166;48.264;11.436;2022-12-18T16:47:34;97394.69;;;7.07;42.33
10476;BME280;26166;48.264;11.436;2022-12-18T16:50:34;97395.66;;;7.06;42.25
10476;BME280;26166;48.264;11.436;2022-12-18T16:53:34;97391.38;;;7.05;42.26
10476;BME280;26166;48.264;11.436;2022-12-18T16:56:34;97393.03;;;7.06;42.38
10476;BME280;26166;48.264;11.436;2022-12-18T16:59:35;97402.88;;;7.02;42.95
10476;BME280;26166;48.264;11.436;2022-12-18T17:02:35;97411.44;;;7.04;42.53
10476;BME280;26166;48.264;11.436;2022-12-18T17:05:35;97401.81;;;7.05;43.00
10476;BME280;26166;48.264;11.436;2022-12-18T17:08:35;97407.06;;;7.05;43.09
10476;BME280;26166;48.264;11.436;2022-12-18T17:11:36;97405.41;;;7.04;42.99
10476;BME280;26166;48.264;11.436;2022-12-18T17:14:36;97398.13;;;7.07;42.52
10476;BME280;26166;48.264;11.436;2022-12-18T17:17:37;97393.72;;;7.08;42.40
10476;BME280;26166;48.264;11.436;2022-12-18T17:20:37;97390.28;;;7.07;42.59
10476;BME280;26166;48.264;11.436;2022-12-18T17:23:37;97385.19;;;7.06;42.87
10476;BME280;26166;48.264;11.436;2022-12-18T17:26:38;97380.09;;;7.04;42.59
10476;BME280;26166;48.264;11.436;2022-12-18T17:29:38;97380.09;;;7.04;42.37
10476;BME280;26166;48.264;11.436;2022-12-18T17:32:38;97382.81;;;7.03;43.23
10476;BME280;26166;48.264;11.436;2022-12-18T17:35:39;97380.94;;;7.05;42.54
10476;BME280;26166;48.264;11.436;2022-12-18T17:38:39;97384.50;;;7.04;43.26
10476;BME280;26166;48.264;11.436;2022-12-18T17:41:42;97390.53;;;7.04;42.65
10476;BME280;26166;48.264;11.436;2022-12-18T17:44:42;97388.03;;;7.03;42.82
10476;BME280;26166;48.264;11.436;2022-12-18T17:47:43;97390.16;;;6.98;42.88
10476;BME280;26166;48.264;11.436;2022-12-18T17:50:43;97399.91;;;6.96;42.96
10476;BME280;26166;48.264;11.436;2022-12-18T17:53:44;97389.34;;;6.97;42.96
10476;BME280;26166;48.264;11.436;2022-12-18T17:56:45;97384.13;;;6.97;43.42
10476;BME280;26166;48.264;11.436;2022-12-18T17:59:45;97376.16;;;6.99;43.30
10476;BME280;26166;48.264;11.436;2022-12-18T18:02:45;97377.84;;;7.00;43.11
10476;BME280;26166;48.264;11.436;2022-12-18T18:05:45;97380.66;;;6.97;42.87
10476;BME280;26166;48.264;11.436;2022-12-18T18:08:46;97376.50;;;6.94;42.98
10476;BME280;26166;48.264;11.436;2022-12-18T18:11:46;97381.03;;;6.92;42.76
10476;BME280;26166;48.264;11.436;2022-12-18T18:15:05;97384.81;;;6.88;43.26